Time;durP1;ratioP1;P1;durP2;ratioP2;P2;SDS_P1;SDS_P2;PMS_P1;PMS_P2;Temp;Humidity;BMP_temperature;BMP_pressure;BME280_temperature;BME280_humidity;BME280_pressure;Samples;Min_cycle;Max_cycle;Signal;HPM_P1;HPM_P2
2021/08/13 00:01:23;;;;;;;17.67;15.88;;;17.30;99.90;;;;;;5091992;28;20052;-58
2021/08/13 00:03:50;;;;;;;16.70;15.00;;;17.30;99.90;;;;;;5092103;28;20044;-57
2021/08/13 00:06:16;;;;;;;12.90;11.52;;;17.20;99.90;;;;;;5092131;28;20052;-57
2021/08/13 00:08:42;;;;;;;13.40;12.10;;;17.10;99.90;;;;;;5095097;28;20044;-58
2021/08/13 00:11:08;;;;;;;15.98;14.20;;;17.10;99.90;;;;;;5075862;28;20491;-57
2021/08/13 00:13:34;;;;;;;13.13;11.73;;;17.00;99.90;;;;;;5073268;28;20117;-57
2021/08/13 00:16:01;;;;;;;12.85;11.55;;;17.00;99.90;;;;;;5091309;28;20113;-57
2021/08/13 00:18:27;;;;;;;12.18;10.65;;;17.00;99.90;;;;;;5091940;28;20055;-57
2021/08/13 00:20:53;;;;;;;11.60;10.50;;;16.90;99.90;;;;;;5091914;28;20040;-57
2021/08/13 00:23:20;;;;;;;14.63;13.23;;;16.90;99.90;;;;;;5072999;28;20113;-57
2021/08/13 00:25:46;;;;;;;13.73;12.00;;;16.80;99.90;;;;;;5094335;28;20119;-57
2021/08/13 00:28:12;;;;;;;13.48;12.23;;;16.80;99.90;;;;;;5091029;28;20047;-58
2021/08/13 00:30:38;;;;;;;12.30;11.05;;;16.70;99.90;;;;;;5092249;28;20129;-56
2021/08/13 00:33:04;;;;;;;11.43;10.43;;;16.70;99.90;;;;;;5073225;28;20054;-58
2021/08/13 00:35:32;;;;;;;14.23;12.88;;;16.70;99.90;;;;;;5073368;28;20079;-57
2021/08/13 00:37:58;;;;;;;16.15;14.48;;;16.70;99.90;;;;;;5072737;28;20055;-57
2021/08/13 00:40:24;;;;;;;16.05;14.55;;;16.70;99.90;;;;;;5090791;28;20580;-57
2021/08/13 00:42:52;;;;;;;16.73;15.05;;;16.70;99.90;;;;;;5073550;28;20040;-57
2021/08/13 00:45:18;;;;;;;14.85;13.43;;;16.70;99.90;;;;;;5090882;28;20492;-57
2021/08/13 00:47:59;;;;;;;13.95;12.55;;;16.70;99.90;;;;;;5073970;28;20044;-57
2021/08/13 00:50:45;;;;;;;14.13;12.70;;;16.60;99.90;;;;;;5091055;28;20060;-58
2021/08/13 00:53:12;;;;;;;14.80;12.52;;;16.60;99.90;;;;;;5095106;28;20499;-57
2021/08/13 00:55:41;;;;;;;13.55;12.15;;;16.60;99.90;;;;;;5072124;28;20055;-57
2021/08/13 00:58:23;;;;;;;15.38;13.77;;;16.50;99.90;;;;;;5057736;28;20048;-57
2021/08/13 01:01:04;;;;;;;14.70;13.25;;;16.50;99.90;;;;;;5078983;28;20040;-57
2021/08/13 01:03:31;;;;;;;12.35;11.23;;;16.50;99.90;;;;;;5072945;28;20548;-57
2021/08/13 01:06:02;;;;;;;15.20;13.70;;;16.40;99.90;;;;;;5071048;28;20508;-57
2021/08/13 01:08:30;;;;;;;15.88;14.27;;;16.40;99.90;;;;;;5083767;28;20108;-57
2021/08/13 01:11:36;;;;;;;14.23;12.82;;;16.40;99.90;;;;;;5094276;28;20404;-57
2021/08/13 01:14:21;;;;;;;14.38;12.95;;;16.40;99.90;;;;;;5072846;28;20083;-57
2021/08/13 01:16:51;;;;;;;12.65;11.32;;;16.30;99.90;;;;;;5072643;28;20405;-57
2021/08/13 01:19:37;;;;;;;13.13;11.27;;;16.20;99.90;;;;;;5055979;28;20056;-58
2021/08/13 01:22:09;;;;;;;13.25;11.95;;;16.20;99.90;;;;;;5069469;28;20135;-57
2021/08/13 01:24:44;;;;;;;12.15;10.85;;;16.20;99.90;;;;;;5052394;28;20084;-58
2021/08/13 01:27:16;;;;;;;11.20;10.13;;;16.20;99.90;;;;;;5054646;28;20066;-58
2021/08/13 01:29:56;;;;;;;11.40;9.90;;;16.10;99.90;;;;;;5035369;28;20072;-57
2021/08/13 01:32:37;;;;;;;10.48;9.25;;;16.20;99.90;;;;;;5068892;28;20059;-57
2021/08/13 01:35:08;;;;;;;13.20;11.77;;;16.20;99.90;;;;;;5071630;28;20135;-58
2021/08/13 01:37:38;;;;;;;12.90;10.68;;;16.10;99.90;;;;;;5078941;28;20040;-58
2021/08/13 01:40:08;;;;;;;11.40;10.20;;;16.10;99.90;;;;;;5072145;28;20056;-58
2021/08/13 01:42:38;;;;;;;11.00;9.52;;;16.10;99.90;;;;;;5073351;28;20514;-57
2021/08/13 01:45:06;;;;;;;9.90;8.75;;;16.00;99.90;;;;;;5071473;28;20107;-57
2021/08/13 01:47:38;;;;;;;10.75;9.75;;;16.00;99.90;;;;;;5071468;28;20134;-57
2021/08/13 01:50:05;;;;;;;10.32;9.32;;;16.00;99.90;;;;;;5096249;28;20071;-58
2021/08/13 01:52:33;;;;;;;11.27;9.85;;;15.90;99.90;;;;;;5071852;28;20044;-57
2021/08/13 01:55:00;;;;;;;9.40;7.90;;;15.90;99.90;;;;;;5071093;28;20067;-55
2021/08/13 01:57:26;;;;;;;9.57;8.68;;;15.80;99.90;;;;;;5067633;28;20044;-58
2021/08/13 01:59:54;;;;;;;10.48;9.55;;;15.80;99.90;;;;;;5074135;28;20484;-57
2021/08/13 02:02:22;;;;;;;9.38;8.50;;;15.90;99.90;;;;;;5070814;28;20060;-58
2021/08/13 02:04:51;;;;;;;10.82;9.02;;;15.90;99.90;;;;;;5071596;28;20044;-57
2021/08/13 02:07:18;;;;;;;10.60;9.63;;;15.90;99.90;;;;;;5073352;28;20044;-58
2021/08/13 02:09:45;;;;;;;10.23;9.23;;;15.80;99.90;;;;;;5066791;28;20057;-57
2021/08/13 02:12:22;;;;;;;9.23;8.32;;;15.80;99.90;;;;;;5069397;28;20049;-58
2021/08/13 02:14:56;;;;;;;8.60;7.80;;;15.80;99.90;;;;;;5083856;28;20150;-57
2021/08/13 02:17:28;;;;;;;9.38;8.43;;;15.80;99.90;;;;;;5054069;28;20048;-58
2021/08/13 02:20:02;;;;;;;;;;;15.80;99.90;;;;;;5061712;28;20078;-58
2021/08/13 02:22:28;;;;;;;9.68;8.77;;;15.70;99.90;;;;;;5070988;28;19935;-57
2021/08/13 02:25:00;;;;;;;9.38;8.48;;;15.60;99.90;;;;;;5070940;28;20047;-57
2021/08/13 02:27:27;;;;;;;8.55;7.38;;;15.60;99.90;;;;;;5070557;28;20044;-57
2021/08/13 02:29:54;;;;;;;7.78;7.07;;;15.60;99.90;;;;;;5070761;28;20408;-57
2021/08/13 02:32:25;;;;;;;6.90;6.25;;;15.50;99.90;;;;;;5074759;28;20494;-58
2021/08/13 02:34:52;;;;;;;8.02;7.22;;;15.50;99.90;;;;;;5054898;28;20070;-58
2021/08/13 02:37:48;;;;;;;7.55;6.85;;;15.50;99.90;;;;;;5070685;28;20513;-57
2021/08/13 02:40:19;;;;;;;8.05;7.22;;;15.50;99.90;;;;;;5070737;28;20539;-58
2021/08/13 02:43:00;;;;;;;7.75;6.55;;;15.50;99.90;;;;;;5074905;28;20052;-57
2021/08/13 02:45:31;;;;;;;9.00;8.07;;;15.50;99.90;;;;;;5067981;28;20067;-58
2021/08/13 02:48:00;;;;;;;9.02;7.97;;;15.50;99.90;;;;;;5070353;28;20121;-57
2021/08/13 02:50:32;;;;;;;11.10;8.30;;;15.50;99.90;;;;;;5070860;28;20055;-57
2021/08/13 02:53:06;;;;;;;7.72;6.90;;;15.40;99.90;;;;;;5070410;28;20142;-57
2021/08/13 02:55:46;;;;;;;8.30;7.43;;;15.30;99.90;;;;;;5072064;28;20095;-58
2021/08/13 02:58:17;;;;;;;10.18;9.18;;;15.30;99.90;;;;;;5053432;28;20169;-58
2021/08/13 03:00:44;;;;;;;8.55;7.75;;;15.30;99.90;;;;;;5093648;28;20066;-58
2021/08/13 03:03:12;;;;;;;9.30;8.40;;;15.30;99.90;;;;;;5070195;28;20068;-57
2021/08/13 03:05:43;;;;;;;9.13;8.23;;;15.30;99.90;;;;;;5053504;28;20624;-57
2021/08/13 03:08:09;;;;;;;7.60;6.90;;;15.30;99.90;;;;;;5057043;28;20048;-58
2021/08/13 03:10:38;;;;;;;7.93;7.03;;;15.20;99.90;;;;;;5069775;28;20689;-58
2021/08/13 03:13:08;;;;;;;9.18;8.27;;;15.20;99.90;;;;;;5088634;28;20056;-58
2021/08/13 03:15:35;;;;;;;10.55;9.48;;;15.30;99.90;;;;;;5070196;28;20051;-58
2021/08/13 03:18:04;;;;;;;12.55;11.23;;;15.30;99.90;;;;;;5053646;28;20160;-58
2021/08/13 03:20:30;;;;;;;12.13;10.65;;;15.30;99.90;;;;;;5070167;28;20142;-58
2021/08/13 03:23:08;;;;;;;12.73;11.40;;;15.20;99.90;;;;;;5080810;28;20194;-58
2021/08/13 03:25:37;;;;;;;15.15;13.55;;;15.20;99.90;;;;;;5092937;28;20052;-58
2021/08/13 03:28:08;;;;;;;16.13;14.43;;;15.30;99.90;;;;;;5058724;28;20048;-59
2021/08/13 03:30:42;;;;;;;15.27;12.77;;;15.30;99.90;;;;;;5075110;28;20091;-58
2021/08/13 03:33:14;;;;;;;14.63;13.23;;;15.30;99.90;;;;;;5073929;28;20510;-58
2021/08/13 03:35:42;;;;;;;15.77;14.18;;;15.30;99.90;;;;;;5098385;28;20479;-58
2021/08/13 03:38:09;;;;;;;16.23;13.75;;;15.30;99.90;;;;;;5081549;28;20500;-58
2021/08/13 03:40:35;;;;;;;17.10;13.98;;;15.30;99.90;;;;;;5092352;28;20047;-58
2021/08/13 03:43:03;;;;;;;17.13;15.45;;;15.40;99.90;;;;;;5073978;28;20056;-58
2021/08/13 03:45:29;;;;;;;17.05;15.05;;;15.40;99.90;;;;;;5091963;28;20063;-58
2021/08/13 03:47:57;;;;;;;18.08;16.27;;;15.30;99.90;;;;;;5073720;28;20044;-58
2021/08/13 03:50:23;;;;;;;18.58;15.98;;;15.30;99.90;;;;;;5076140;28;20044;-58
2021/08/13 03:52:50;;;;;;;20.80;18.60;;;15.30;99.90;;;;;;5074150;28;20473;-59
2021/08/13 03:55:19;;;;;;;21.85;18.90;;;15.30;99.90;;;;;;5074013;28;20064;-58
2021/08/13 03:57:46;;;;;;;23.52;18.27;;;15.30;99.90;;;;;;5073437;28;20048;-58
2021/08/13 04:00:13;;;;;;;19.45;16.63;;;15.30;99.90;;;;;;5091613;28;20052;-58
2021/08/13 04:02:46;;;;;;;19.20;17.27;;;15.30;99.90;;;;;;5092393;28;20047;-58
2021/08/13 04:05:17;;;;;;;18.20;15.82;;;15.30;99.90;;;;;;5073975;28;20052;-59
2021/08/13 04:07:47;;;;;;;17.58;15.70;;;15.30;99.90;;;;;;5076026;28;20149;-58
2021/08/13 04:10:13;;;;;;;18.27;16.38;;;15.30;99.90;;;;;;5073612;28;20577;-58
2021/08/13 04:12:39;;;;;;;17.98;15.70;;;15.30;99.90;;;;;;5091581;28;20440;-58
2021/08/13 04:15:14;;;;;;;19.23;16.65;;;15.20;99.90;;;;;;5070201;28;20485;-58
2021/08/13 04:17:42;;;;;;;30.35;17.08;;;15.20;99.90;;;;;;5079259;28;20060;-58
2021/08/13 04:20:09;;;;;;;19.67;17.67;;;15.20;99.90;;;;;;5086972;28;20094;-58
2021/08/13 04:22:40;;;;;;;16.90;15.10;;;15.20;99.90;;;;;;5073783;28;20056;-58
2021/08/13 04:25:08;;;;;;;15.25;13.70;;;15.10;99.90;;;;;;5073875;28;20298;-58
2021/08/13 04:27:34;;;;;;;16.10;14.40;;;15.10;99.90;;;;;;5073411;28;20073;-58
2021/08/13 04:30:04;;;;;;;16.63;13.07;;;15.10;99.90;;;;;;5073554;28;20401;-59
2021/08/13 04:32:31;;;;;;;13.48;11.60;;;15.00;99.90;;;;;;5069287;28;20052;-58
2021/08/13 04:34:58;;;;;;;13.65;11.88;;;15.00;99.90;;;;;;5052889;28;20041;-59
2021/08/13 04:37:26;;;;;;;13.95;11.25;;;15.00;99.90;;;;;;5053914;28;20143;-58
2021/08/13 04:39:52;;;;;;;12.52;10.80;;;15.00;99.90;;;;;;5073312;28;20048;-58
2021/08/13 04:42:21;;;;;;;11.57;10.48;;;14.90;99.90;;;;;;5074364;28;20071;-59
2021/08/13 04:44:48;;;;;;;12.00;10.60;;;15.00;99.90;;;;;;5074198;28;20084;-58
2021/08/13 04:47:14;;;;;;;13.32;11.40;;;14.90;99.90;;;;;;5091483;28;20064;-59
2021/08/13 04:49:40;;;;;;;12.73;11.52;;;14.90;99.90;;;;;;5073279;28;20055;-59
2021/08/13 04:52:07;;;;;;;13.35;11.52;;;15.00;99.90;;;;;;5042747;28;20041;-59
2021/08/13 04:54:34;;;;;;;13.23;11.80;;;15.00;99.90;;;;;;5053624;28;20492;-59
2021/08/13 04:57:02;;;;;;;14.65;13.25;;;15.10;99.90;;;;;;5036567;28;20525;-59
2021/08/13 04:59:34;;;;;;;15.00;11.68;;;15.00;99.90;;;;;;5061200;28;20400;-59
2021/08/13 05:02:05;;;;;;;15.02;12.90;;;15.10;99.90;;;;;;5083994;28;20047;-59
2021/08/13 05:04:32;;;;;;;18.73;16.17;;;15.20;99.90;;;;;;5056155;28;20080;-59
2021/08/13 05:06:59;;;;;;;17.83;16.02;;;15.30;99.90;;;;;;5069943;28;20114;-59
2021/08/13 05:09:27;;;;;;;18.83;16.48;;;15.40;99.90;;;;;;5052732;28;20059;-59
2021/08/13 05:11:53;;;;;;;20.42;18.02;;;15.50;99.90;;;;;;5071215;28;20044;-59
2021/08/13 05:14:25;;;;;;;18.90;16.77;;;15.60;99.90;;;;;;5073144;28;20066;-59
2021/08/13 05:16:51;;;;;;;17.90;16.05;;;15.70;99.90;;;;;;5072793;28;20312;-59
2021/08/13 05:19:19;;;;;;;21.27;18.27;;;15.80;99.90;;;;;;5072612;28;20102;-59
2021/08/13 05:21:45;;;;;;;22.65;20.35;;;15.90;99.90;;;;;;5072589;28;20124;-59
2021/08/13 05:24:18;;;;;;;23.70;20.75;;;16.10;99.90;;;;;;5072500;28;20097;-59
2021/08/13 05:26:45;;;;;;;21.50;19.38;;;16.40;99.90;;;;;;5090262;28;20121;-59
2021/08/13 05:29:11;;;;;;;21.33;19.02;;;16.60;99.90;;;;;;5071749;28;20051;-59
2021/08/13 05:31:55;;;;;;;21.38;19.15;;;16.80;99.90;;;;;;5072452;28;20054;-59
2021/08/13 05:34:22;;;;;;;21.30;19.00;;;17.00;99.90;;;;;;5072156;28;20044;-59
2021/08/13 05:36:51;;;;;;;19.25;16.85;;;17.10;99.90;;;;;;5071708;28;20054;-59
2021/08/13 05:39:17;;;;;;;18.73;16.83;;;17.10;99.90;;;;;;5071172;28;20068;-60
2021/08/13 05:41:48;;;;;;;20.83;18.60;;;17.30;99.90;;;;;;5093173;28;20118;-60
2021/08/13 05:44:18;;;;;;;16.02;14.00;;;17.50;99.90;;;;;;5070853;28;20056;-61
2021/08/13 05:46:44;;;;;;;18.48;16.55;;;17.70;99.90;;;;;;5070990;28;20852;-60
2021/08/13 05:49:10;;;;;;;19.25;17.38;;;17.80;99.90;;;;;;5071104;28;20062;-60
2021/08/13 05:51:37;;;;;;;21.08;18.88;;;17.90;99.90;;;;;;5070476;28;20351;-61
2021/08/13 05:54:12;;;;;;;20.02;17.98;;;18.00;99.90;;;;;;5065772;28;20113;-61
2021/08/13 05:56:40;;;;;;;19.00;17.00;;;18.10;99.90;;;;;;5068179;28;20067;-62
2021/08/13 05:59:09;;;;;;;21.38;19.25;;;18.20;99.90;;;;;;5089760;28;20132;-65
2021/08/13 06:01:37;;;;;;;19.25;17.40;;;18.40;99.90;;;;;;5070583;28;20117;-62
2021/08/13 06:04:11;;;;;;;56.67;50.78;;;18.60;99.90;;;;;;5069004;28;20044;-61
2021/08/13 06:06:42;;;;;;;41.80;37.45;;;18.80;99.90;;;;;;5067002;28;20057;-57
2021/08/13 06:09:15;;;;;;;35.70;28.83;;;19.20;99.90;;;;;;5069102;28;20055;-58
2021/08/13 06:11:51;;;;;;;21.73;19.40;;;19.30;99.90;;;;;;5051457;28;20412;-58
2021/08/13 06:14:21;;;;;;;22.90;20.52;;;19.40;99.90;;;;;;5077621;28;20040;-57
2021/08/13 06:16:54;;;;;;;21.73;19.42;;;19.50;99.90;;;;;;5059786;28;20051;-58
2021/08/13 06:19:31;;;;;;;32.88;26.65;;;19.70;99.90;;;;;;5084934;28;20541;-59
2021/08/13 06:21:57;;;;;;;22.25;19.73;;;20.00;99.90;;;;;;5069627;28;20051;-58
2021/08/13 06:24:27;;;;;;;30.77;27.83;;;20.00;99.90;;;;;;5087436;28;20815;-57
2021/08/13 06:26:53;;;;;;;136.68;123.22;;;20.10;99.90;;;;;;5052909;28;20047;-56
2021/08/13 06:29:22;;;;;;;43.70;39.15;;;20.10;99.90;;;;;;5074135;28;20040;-58
2021/08/13 06:31:49;;;;;;;32.05;28.67;;;20.10;99.90;;;;;;5088391;28;20072;-58
2021/08/13 06:34:18;;;;;;;24.35;21.77;;;20.20;99.90;;;;;;5086098;28;20488;-58
2021/08/13 06:39:47;;;;;;;30.58;27.27;;;20.20;99.90;;;;;;5071620;28;20411;-59
2021/08/13 06:42:16;;;;;;;24.52;22.10;;;20.20;99.90;;;;;;5069911;28;20534;-58
2021/08/13 06:44:58;;;;;;;24.15;21.65;;;20.30;99.90;;;;;;5068716;28;20590;-57
2021/08/13 06:47:45;;;;;;;27.52;24.80;;;20.30;99.90;;;;;;5089365;28;20040;-55
2021/08/13 06:50:37;;;;;;;23.65;21.25;;;20.40;99.90;;;;;;5073647;28;20056;-58
2021/08/13 06:53:26;;;;;;;23.55;21.13;;;20.60;99.90;;;;;;5088455;28;20549;-58
2021/08/13 06:55:55;;;;;;;25.80;23.13;;;20.80;99.90;;;;;;5005635;28;20054;-60
2021/08/13 06:58:34;;;;;;;61.20;54.85;;;20.90;99.90;;;;;;5012148;28;20140;-59
2021/08/13 07:01:02;;;;;;;64.88;58.42;;;21.10;99.90;;;;;;4996910;28;20490;-65
2021/08/13 07:03:29;;;;;;;46.15;41.25;;;21.20;99.90;;;;;;4996122;28;20052;-62
2021/08/13 07:05:55;;;;;;;39.67;34.22;;;21.30;99.90;;;;;;5012727;28;20053;-64
2021/08/13 07:08:27;;;;;;;32.47;29.10;;;21.30;99.90;;;;;;4996374;28;20108;-64
2021/08/13 07:11:12;;;;;;;27.75;24.88;;;21.30;99.90;;;;;;4995525;28;20046;-63
2021/08/13 07:13:41;;;;;;;25.63;21.52;;;21.30;99.90;;;;;;5013318;28;20553;-64
2021/08/13 07:16:12;;;;;;;24.48;22.00;;;21.40;99.90;;;;;;4980518;28;20061;-64
2021/08/13 07:18:46;;;;;;;24.42;21.88;;;21.40;99.90;;;;;;4993133;28;20128;-63
2021/08/13 07:21:25;;;;;;;22.58;19.60;;;21.50;99.90;;;;;;5011731;28;20105;-61
2021/08/13 07:24:07;;;;;;;21.27;18.42;;;21.70;99.90;;;;;;4992315;28;20494;-57
2021/08/13 07:26:37;;;;;;;20.83;18.73;;;21.60;99.90;;;;;;4996112;28;20049;-59
2021/08/13 07:29:03;;;;;;;24.73;21.98;;;21.70;99.90;;;;;;5012519;28;20125;-60
2021/08/13 07:31:29;;;;;;;22.05;20.00;;;21.60;99.90;;;;;;4989675;28;20515;-59
2021/08/13 07:34:12;;;;;;;19.83;17.77;;;21.50;99.90;;;;;;5060191;28;20048;-59
2021/08/13 07:36:43;;;;;;;21.20;18.93;;;21.60;99.90;;;;;;5077771;28;20422;-58
2021/08/13 07:39:12;;;;;;;23.65;21.20;;;21.60;99.90;;;;;;5060102;28;20139;-59
2021/08/13 07:41:46;;;;;;;20.70;18.58;;;21.70;99.90;;;;;;5075285;28;20082;-56
2021/08/13 07:44:15;;;;;;;18.02;14.38;;;21.80;99.90;;;;;;5094558;28;20060;-58
2021/08/13 07:46:43;;;;;;;17.08;14.70;;;21.90;99.90;;;;;;5076798;28;20081;-58
2021/08/13 07:49:15;;;;;;;21.10;19.00;;;21.90;99.90;;;;;;5094653;28;20079;-58
2021/08/13 07:51:41;;;;;;;19.38;16.80;;;21.90;99.90;;;;;;5083307;28;20480;-57
2021/08/13 07:54:07;;;;;;;21.90;19.67;;;22.00;99.90;;;;;;5075008;28;20075;-60
2021/08/13 07:56:34;;;;;;;17.10;15.40;;;22.00;99.90;;;;;;5095447;28;20444;-60
2021/08/13 07:59:01;;;;;;;18.58;16.52;;;22.10;99.90;;;;;;5086874;28;20047;-60
2021/08/13 08:01:28;;;;;;;82.18;74.28;;;22.20;99.90;;;;;;5075469;28;20066;-60
2021/08/13 08:03:54;;;;;;;20.90;18.80;;;22.00;99.90;;;;;;5093980;28;20496;-60
2021/08/13 08:06:20;;;;;;;24.63;21.83;;;22.20;99.90;;;;;;5094531;28;20458;-58
2021/08/13 08:08:47;;;;;;;23.80;20.58;;;22.20;99.90;;;;;;5091221;28;20048;-58
2021/08/13 08:11:13;;;;;;;17.95;16.00;;;22.30;99.90;;;;;;5094359;28;20109;-58
2021/08/13 08:13:39;;;;;;;22.70;19.70;;;22.20;99.90;;;;;;5088997;28;20093;-59
2021/08/13 08:16:05;;;;;;;17.65;14.88;;;22.20;99.90;;;;;;5043001;28;20464;-58
2021/08/13 08:18:34;;;;;;;32.60;29.13;;;22.30;99.90;;;;;;5091846;28;20044;-58
2021/08/13 08:21:03;;;;;;;18.98;16.27;;;22.50;99.90;;;;;;5084658;28;20048;-58
2021/08/13 08:23:29;;;;;;;14.88;13.35;;;22.40;99.90;;;;;;5070233;28;20052;-58
2021/08/13 08:25:55;;;;;;;13.55;12.15;;;22.30;99.90;;;;;;5100728;28;20047;-57
2021/08/13 08:28:21;;;;;;;16.60;14.48;;;22.20;99.90;;;;;;5092648;28;20054;-58
2021/08/13 08:30:47;;;;;;;65.00;58.67;;;22.30;99.90;;;;;;5090322;28;20150;-58
2021/08/13 08:33:13;;;;;;;20.58;18.42;;;22.30;99.90;;;;;;5092221;28;20044;-58
2021/08/13 08:35:39;;;;;;;22.63;20.25;;;22.60;99.90;;;;;;5094264;28;20114;-58
2021/08/13 08:38:05;;;;;;;28.25;25.42;;;22.60;99.90;;;;;;5090271;28;20094;-58
2021/08/13 08:40:34;;;;;;;16.23;14.48;;;22.70;99.90;;;;;;5094245;28;20044;-58
2021/08/13 08:43:03;;;;;;;19.73;17.60;;;22.60;99.90;;;;;;5071102;28;20088;-58
2021/08/13 08:45:32;;;;;;;15.25;13.57;;;22.50;99.90;;;;;;5092325;28;20408;-61
2021/08/13 08:48:03;;;;;;;17.38;15.50;;;22.50;99.90;;;;;;5092537;28;20488;-59
2021/08/13 08:50:31;;;;;;;13.68;11.82;;;22.70;99.90;;;;;;5094686;28;20050;-58
2021/08/13 08:52:59;;;;;;;13.35;12.00;;;23.00;99.90;;;;;;5085304;28;20048;-58
2021/08/13 08:55:28;;;;;;;13.57;12.07;;;23.20;99.90;;;;;;5085352;28;20087;-58
2021/08/13 08:57:56;;;;;;;13.68;10.50;;;23.40;99.90;;;;;;5091411;28;20047;-59
2021/08/13 09:00:24;;;;;;;20.80;18.70;;;23.70;99.90;;;;;;5088639;28;20044;-59
2021/08/13 09:02:50;;;;;;;13.23;11.70;;;24.10;99.90;;;;;;5081072;28;20395;-58
2021/08/13 09:05:17;;;;;;;41.03;36.63;;;24.70;99.90;;;;;;5089963;28;20043;-58
2021/08/13 09:07:43;;;;;;;30.33;27.13;;;24.70;99.90;;;;;;5095683;28;20044;-58
2021/08/13 09:10:12;;;;;;;21.88;19.73;;;24.90;99.90;;;;;;5068749;28;20056;-58
2021/08/13 09:12:38;;;;;;;12.38;10.55;;;25.00;99.90;;;;;;5089240;28;20059;-58
2021/08/13 09:15:24;;;;;;;12.77;11.52;;;24.70;99.90;;;;;;5088748;28;20514;-59
2021/08/13 09:18:09;;;;;;;14.98;12.02;;;24.50;99.90;;;;;;5091182;28;20052;-59
2021/08/13 09:20:37;;;;;;;12.10;9.48;;;24.50;99.90;;;;;;5077486;28;20044;-58
2021/08/13 09:23:03;;;;;;;12.30;11.02;;;24.30;99.90;;;;;;5095719;28;20429;-59
2021/08/13 09:25:29;;;;;;;30.75;27.77;;;24.10;99.90;;;;;;5090261;28;20040;-59
2021/08/13 09:28:17;;;;;;;27.33;24.55;;;23.90;99.90;;;;;;5091461;28;20047;-59
2021/08/13 09:31:12;;;;;;;27.50;24.77;;;23.60;99.90;;;;;;5071328;28;20052;-59
2021/08/13 09:33:39;;;;;;;25.05;22.48;;;23.10;99.90;;;;;;5091957;28;20489;-58
2021/08/13 09:36:06;;;;;;;10.85;9.25;;;22.90;99.90;;;;;;5086848;28;20329;-59
2021/08/13 09:38:33;;;;;;;11.57;10.30;;;22.70;99.90;;;;;;5089623;28;20056;-61
2021/08/13 09:41:17;;;;;;;10.65;8.82;;;23.10;99.90;;;;;;5089647;28;20047;-60
2021/08/13 09:44:00;;;;;;;11.98;8.40;;;23.60;99.90;;;;;;5072531;28;20466;-60
2021/08/13 09:46:28;;;;;;;17.95;9.98;;;24.30;99.90;;;;;;5070428;28;20051;-59
2021/08/13 09:49:14;;;;;;;13.63;8.93;;;24.50;99.90;;;;;;5079181;28;20044;-58
2021/08/13 09:51:41;;;;;;;12.77;7.60;;;24.60;99.90;;;;;;5065978;28;20039;-58
2021/08/13 09:54:11;;;;;;;8.90;6.30;;;24.30;99.90;;;;;;5091607;28;20040;-58
2021/08/13 09:56:39;;;;;;;10.18;7.07;;;24.20;99.90;;;;;;5088011;28;20044;-58
2021/08/13 09:59:13;;;;;;;9.07;6.57;;;23.90;99.90;;;;;;5089498;28;20042;-58
2021/08/13 10:01:48;;;;;;;13.90;8.55;;;23.80;99.90;;;;;;5088390;28;20074;-58
2021/08/13 10:04:16;;;;;;;10.70;7.93;;;23.90;99.90;;;;;;5087413;28;20404;-57
2021/08/13 10:06:44;;;;;;;6.95;5.45;;;24.20;99.90;;;;;;5086658;28;20039;-57
2021/08/13 10:09:25;;;;;;;8.50;5.43;;;24.40;99.90;;;;;;5088488;28;20164;-58
2021/08/13 10:12:00;;;;;;;9.75;5.00;;;24.30;99.90;;;;;;5069406;28;20055;-59
2021/08/13 10:14:33;;;;;;;9.32;5.25;;;24.10;99.90;;;;;;5089927;28;20040;-59
2021/08/13 10:17:26;;;;;;;9.20;5.40;;;23.80;99.90;;;;;;5066879;28;20049;-59
2021/08/13 10:20:03;;;;;;;9.20;5.22;;;23.20;99.90;;;;;;5072012;28;20048;-59
2021/08/13 10:22:31;;;;;;;9.95;5.30;;;23.20;99.90;;;;;;5074024;28;20047;-59
2021/08/13 10:24:58;;;;;;;8.00;5.15;;;23.10;99.90;;;;;;5074646;28;20047;-59
2021/08/13 10:27:26;;;;;;;7.03;4.90;;;22.90;99.90;;;;;;5075977;28;20117;-59
2021/08/13 10:29:58;;;;;;;10.00;5.22;;;22.90;99.90;;;;;;5071464;28;20526;-59
2021/08/13 10:32:32;;;;;;;7.22;4.90;;;22.90;99.90;;;;;;5069416;28;20059;-60
2021/08/13 10:34:59;;;;;;;8.85;5.72;;;23.30;99.90;;;;;;5066467;28;20101;-59
2021/08/13 10:37:26;;;;;;;32.88;29.40;;;23.70;99.90;;;;;;5069461;28;20135;-61
2021/08/13 10:39:58;;;;;;;15.07;12.00;;;24.10;99.90;;;;;;5070314;28;20047;-61
2021/08/13 10:42:27;;;;;;;10.07;6.50;;;24.10;99.90;;;;;;5069445;28;20036;-61
2021/08/13 10:45:05;;;;;;;8.90;5.50;;;24.50;99.90;;;;;;5068643;28;20051;-62
2021/08/13 10:47:39;;;;;;;10.82;8.40;;;24.50;99.90;;;;;;5090691;28;20048;-62
2021/08/13 10:50:08;;;;;;;12.10;10.02;;;24.80;98.70;;;;;;5074259;28;20048;-62
2021/08/13 10:52:39;;;;;;;10.38;4.75;;;25.00;94.90;;;;;;5086624;28;20681;-62
2021/08/13 10:55:53;;;;;;;9.13;5.57;;;25.10;92.30;;;;;;5067674;28;20419;-59
2021/08/13 10:58:41;;;;;;;7.68;4.90;;;24.80;90.30;;;;;;5059104;28;20065;-60
2021/08/13 11:01:33;;;;;;;10.23;6.47;;;24.80;86.10;;;;;;5006002;28;20077;-61
2021/08/13 11:04:04;;;;;;;8.88;5.57;;;24.60;86.20;;;;;;4988780;28;20050;-61
2021/08/13 11:06:39;;;;;;;7.90;5.32;;;24.30;87.70;;;;;;4990828;28;20807;-60
2021/08/13 11:09:29;;;;;;;7.43;5.13;;;24.20;88.00;;;;;;4991005;28;20136;-61
2021/08/13 11:11:59;;;;;;;9.10;4.93;;;24.10;84.70;;;;;;4967372;28;21533;-61
2021/08/13 11:14:47;;;;;;;9.20;5.13;;;23.80;79.30;;;;;;5005387;28;20529;-60
2021/08/13 11:17:40;;;;;;;8.05;5.40;;;23.90;81.00;;;;;;4991458;28;20045;-62
2021/08/13 11:20:10;;;;;;;8.50;5.18;;;23.90;86.30;;;;;;4987228;28;20107;-60
2021/08/13 11:22:42;;;;;;;7.90;4.70;;;23.70;86.50;;;;;;4987526;28;20061;-60
2021/08/13 11:25:10;;;;;;;9.45;5.18;;;23.70;90.20;;;;;;5005601;28;20084;-60
2021/08/13 11:28:15;;;;;;;9.43;5.40;;;23.80;90.70;;;;;;5002849;28;20046;-60
2021/08/13 11:30:45;;;;;;;8.73;5.10;;;23.70;92.30;;;;;;5001463;28;20084;-60
2021/08/13 11:33:31;;;;;;;7.25;4.93;;;23.60;92.00;;;;;;4987870;28;20129;-61
2021/08/13 11:36:01;;;;;;;8.15;4.45;;;23.60;92.40;;;;;;4984886;28;20060;-61
2021/08/13 11:38:44;;;;;;;8.13;4.57;;;23.80;92.40;;;;;;5035533;28;20075;-61
2021/08/13 11:41:23;;;;;;;8.55;4.40;;;23.80;92.60;;;;;;5068980;28;20048;-62
2021/08/13 11:43:58;;;;;;;8.50;4.53;;;23.90;93.90;;;;;;5088288;28;20240;-61
2021/08/13 11:46:30;;;;;;;8.68;4.15;;;23.90;93.80;;;;;;5071203;28;20048;-61
2021/08/13 11:49:00;;;;;;;8.23;4.28;;;24.20;91.80;;;;;;5072499;28;20071;-62
2021/08/13 11:51:27;;;;;;;9.05;4.07;;;24.10;91.90;;;;;;5089950;28;20052;-61
2021/08/13 11:53:55;;;;;;;8.27;4.45;;;24.00;92.40;;;;;;5072494;28;20404;-61
2021/08/13 11:56:28;;;;;;;7.95;4.05;;;23.60;88.90;;;;;;5068109;28;20091;-61
2021/08/13 11:59:02;;;;;;;6.90;3.85;;;23.80;91.00;;;;;;5068067;28;20508;-62
2021/08/13 12:01:47;;;;;;;7.30;3.70;;;24.10;90.80;;;;;;5068460;28;20072;-61
2021/08/13 12:04:17;;;;;;;7.97;4.03;;;24.30;86.80;;;;;;5072077;28;20049;-61
2021/08/13 12:06:59;;;;;;;6.40;3.42;;;24.90;85.40;;;;;;5067951;28;20052;-62
2021/08/13 12:09:47;;;;;;;6.78;3.50;;;25.10;79.30;;;;;;5073835;28;20043;-53
2021/08/13 12:12:27;;;;;;;11.55;9.10;;;25.30;78.10;;;;;;5069064;28;20440;-63
2021/08/13 12:14:55;;;;;;;12.57;10.20;;;25.40;72.90;;;;;;5070128;28;20047;-59
2021/08/13 12:17:22;;;;;;;13.38;10.63;;;25.50;70.60;;;;;;5051572;28;20118;-59
2021/08/13 12:19:59;;;;;;;8.70;5.32;;;25.20;71.20;;;;;;5068346;28;20090;-60
2021/08/13 12:22:33;;;;;;;15.23;10.73;;;25.10;70.60;;;;;;5071681;28;20133;-65
2021/08/13 12:25:04;;;;;;;12.07;5.82;;;24.90;72.90;;;;;;5064153;28;20080;-59
2021/08/13 12:27:33;;;;;;;18.80;14.75;;;25.10;69.20;;;;;;5067360;28;20049;-60
2021/08/13 12:30:00;;;;;;;13.52;9.45;;;25.10;66.90;;;;;;5071616;28;20139;-58
2021/08/13 12:32:36;;;;;;;28.90;25.60;;;24.90;65.60;;;;;;5068611;28;20059;-59
2021/08/13 12:35:04;;;;;;;15.32;10.20;;;24.60;66.70;;;;;;5047994;28;20770;-58
2021/08/13 12:37:31;;;;;;;8.15;4.63;;;24.60;68.60;;;;;;5087763;28;20048;-58
2021/08/13 12:40:00;;;;;;;11.50;6.38;;;24.60;68.90;;;;;;5066869;28;20527;-56
2021/08/13 12:42:27;;;;;;;11.13;6.93;;;24.20;68.00;;;;;;5067461;28;20700;-65
2021/08/13 12:44:55;;;;;;;9.20;5.18;;;24.30;70.50;;;;;;5069336;28;20135;-65
2021/08/13 12:47:22;;;;;;;9.02;5.30;;;24.20;71.20;;;;;;5066913;28;20056;-64
2021/08/13 12:49:49;;;;;;;13.32;7.80;;;23.90;73.20;;;;;;5072323;28;20500;-65
2021/08/13 12:52:17;;;;;;;11.77;4.78;;;24.10;73.40;;;;;;5068599;28;20078;-65
2021/08/13 12:54:47;;;;;;;10.40;6.68;;;24.40;73.50;;;;;;5074637;28;20040;-65
2021/08/13 12:57:18;;;;;;;11.40;3.85;;;24.70;74.20;;;;;;5067143;28;20052;-65